createdAt,value
2022-12-26T00:01:13.907Z,34.65
2022-12-26T00:03:42.027Z,35.47
2022-12-26T00:06:15.941Z,41.10
2022-12-26T00:08:44.459Z,36.20
2022-12-26T00:11:12.838Z,36.72
2022-12-26T00:13:42.021Z,38.75
2022-12-26T00:16:11.948Z,41.05
2022-12-26T00:18:40.260Z,48.58
2022-12-26T00:21:09.537Z,41.22
2022-12-26T00:23:39.330Z,44.90
2022-12-26T00:26:09.283Z,40.33
2022-12-26T00:28:38.309Z,44.13
2022-12-26T00:31:07.084Z,44.95
2022-12-26T00:33:35.320Z,43.95
2022-12-26T00:36:04.936Z,46.92
2022-12-26T00:38:33.116Z,47.15
2022-12-26T00:41:02.637Z,47.13
2022-12-26T00:43:31.169Z,54.65
2022-12-26T00:45:59.231Z,47.38
2022-12-26T00:48:28.626Z,50.55
2022-12-26T00:50:57.271Z,41.88
2022-12-26T00:53:27.285Z,45.75
2022-12-26T00:55:56.763Z,48.45
2022-12-26T00:58:26.560Z,45.88
2022-12-26T01:00:55.372Z,43.10
2022-12-26T01:03:23.715Z,44.13
2022-12-26T01:05:52.671Z,48.05
2022-12-26T01:08:24.522Z,51.10
2022-12-26T01:10:53.191Z,46.22
2022-12-26T01:13:21.040Z,49.25
2022-12-26T01:15:51.308Z,51.60
2022-12-26T01:18:22.776Z,49.63
2022-12-26T01:20:50.817Z,53.95
2022-12-26T01:23:19.245Z,51.22
2022-12-26T01:26:19.310Z,52.38
2022-12-26T01:28:36.621Z,63.03
2022-12-26T01:31:07.111Z,56.38
2022-12-26T01:33:35.102Z,56.80
2022-12-26T01:36:03.174Z,56.00
2022-12-26T01:38:31.182Z,56.38
2022-12-26T01:41:16.783Z,53.88
2022-12-26T01:43:55.742Z,47.20
2022-12-26T01:46:29.957Z,48.83
2022-12-26T01:49:00.674Z,51.20
2022-12-26T01:51:32.594Z,48.60
2022-12-26T01:54:38.310Z,51.05
2022-12-26T01:56:53.625Z,64.68
2022-12-26T01:59:26.081Z,46.65
2022-12-26T02:01:56.824Z,56.22
2022-12-26T02:04:59.619Z,61.88
2022-12-26T02:07:27.882Z,50.92
2022-12-26T02:09:55.958Z,61.78
2022-12-26T02:12:35.986Z,58.17
2022-12-26T02:15:09.654Z,48.08
2022-12-26T02:17:39.878Z,49.95
2022-12-26T02:20:18.459Z,49.13
2022-12-26T02:23:21.618Z,45.63
2022-12-26T02:26:26.505Z,49.00
2022-12-26T02:29:27.947Z,46.42
2022-12-26T02:32:06.825Z,38.95
2022-12-26T02:34:42.339Z,44.53
2022-12-26T02:37:24.099Z,36.00
2022-12-26T02:40:19.345Z,43.58
2022-12-26T02:42:59.184Z,42.35
2022-12-26T02:45:52.988Z,38.15
2022-12-26T02:48:32.833Z,36.67
2022-12-26T02:51:40.648Z,40.33
2022-12-26T02:54:48.793Z,38.78
2022-12-26T02:57:38.432Z,37.03
2022-12-26T03:00:27.405Z,33.40
2022-12-26T03:03:18.955Z,32.53
2022-12-26T03:06:10.514Z,34.33
2022-12-26T03:09:05.180Z,33.28
2022-12-26T03:11:55.714Z,33.42
2022-12-26T03:14:27.827Z,34.53
2022-12-26T03:17:19.049Z,33.80
2022-12-26T03:20:02.105Z,32.47
2022-12-26T03:22:41.996Z,35.67
2022-12-26T03:25:30.857Z,41.70
2022-12-26T03:27:59.459Z,34.92
2022-12-26T03:31:00.082Z,39.47
2022-12-26T03:33:48.513Z,35.50
2022-12-26T03:36:24.883Z,38.88
2022-12-26T03:39:07.649Z,41.60
2022-12-26T03:42:03.722Z,37.33
2022-12-26T03:44:56.112Z,40.65
2022-12-26T03:47:54.286Z,41.17
2022-12-26T03:50:57.088Z,49.33
2022-12-26T03:53:47.394Z,42.65
2022-12-26T03:56:44.151Z,44.80
2022-12-26T03:59:38.742Z,48.40
2022-12-26T04:02:28.136Z,48.17
2022-12-26T04:05:17.237Z,50.17
2022-12-26T04:08:16.504Z,47.15
2022-12-26T04:11:08.323Z,43.78
2022-12-26T04:14:05.973Z,46.00
2022-12-26T04:16:55.865Z,52.97
2022-12-26T04:19:42.266Z,45.00
2022-12-26T04:22:35.166Z,45.63
2022-12-26T04:25:50.251Z,46.92
2022-12-26T04:28:34.355Z,46.43
2022-12-26T04:31:28.031Z,46.33
2022-12-26T04:34:20.149Z,46.70
2022-12-26T04:37:10.078Z,43.90
2022-12-26T04:39:58.484Z,42.78
2022-12-26T04:42:45.858Z,46.25
2022-12-26T04:45:15.277Z,46.08
2022-12-26T04:48:04.842Z,46.42
2022-12-26T04:50:31.767Z,43.88
2022-12-26T04:52:59.816Z,44.42
2022-12-26T04:55:30.414Z,41.10
2022-12-26T04:57:59.105Z,45.13
2022-12-26T05:00:29.234Z,46.08
2022-12-26T05:03:19.532Z,46.75
2022-12-26T05:06:09.235Z,43.38
2022-12-26T05:08:57.364Z,46.80
2022-12-26T05:11:25.709Z,44.47
2022-12-26T05:13:54.937Z,44.97
2022-12-26T05:16:52.992Z,46.28
2022-12-26T05:19:39.906Z,46.63
2022-12-26T05:22:25.408Z,40.63
2022-12-26T05:25:11.342Z,45.60
2022-12-26T05:28:00.107Z,43.03
2022-12-26T05:30:28.123Z,44.17
2022-12-26T05:33:13.504Z,41.65
2022-12-26T05:35:43.091Z,41.22
2022-12-26T05:38:11.782Z,41.47
2022-12-26T05:40:39.904Z,41.30
2022-12-26T05:43:07.736Z,40.00
2022-12-26T05:45:35.912Z,40.10
2022-12-26T05:48:04.358Z,41.38
2022-12-26T05:50:32.457Z,37.53
2022-12-26T05:53:01.715Z,38.28
2022-12-26T05:55:29.642Z,40.20
2022-12-26T05:57:57.894Z,40.40
2022-12-26T06:00:25.954Z,39.20
2022-12-26T06:02:54.087Z,42.80
2022-12-26T06:05:24.610Z,40.47
2022-12-26T06:07:53.656Z,37.38
2022-12-26T06:10:23.026Z,45.55
2022-12-26T06:12:51.066Z,42.80
2022-12-26T06:15:19.303Z,44.40
2022-12-26T06:17:47.184Z,44.55
2022-12-26T06:20:15.259Z,41.83
2022-12-26T06:22:43.074Z,40.83
2022-12-26T06:25:11.160Z,46.22
2022-12-26T06:27:40.441Z,42.55
2022-12-26T06:30:09.108Z,40.53
2022-12-26T06:32:36.967Z,41.47
2022-12-26T06:35:05.316Z,40.97
2022-12-26T06:37:34.425Z,41.40
2022-12-26T06:40:02.301Z,37.05
2022-12-26T06:42:30.553Z,32.97
2022-12-26T06:44:59.850Z,30.77
2022-12-26T06:47:27.917Z,33.00
2022-12-26T06:49:55.747Z,36.92
2022-12-26T06:52:23.645Z,34.83
2022-12-26T06:54:51.511Z,35.97
2022-12-26T06:57:19.393Z,30.40
2022-12-26T06:59:47.496Z,38.17
2022-12-26T07:02:16.798Z,35.53
2022-12-26T07:04:44.837Z,26.95
2022-12-26T07:07:12.837Z,35.20
2022-12-26T07:09:40.800Z,29.80
2022-12-26T07:12:08.704Z,35.47
2022-12-26T07:14:37.530Z,27.17
2022-12-26T07:17:05.499Z,32.58
2022-12-26T07:19:34.925Z,25.13
2022-12-26T07:22:02.780Z,27.05
2022-12-26T07:24:30.864Z,26.75
2022-12-26T07:26:58.657Z,29.67
2022-12-26T07:29:26.784Z,31.55
2022-12-26T07:31:54.689Z,29.30
2022-12-26T07:34:27.864Z,24.27
2022-12-26T07:37:00.385Z,23.10
2022-12-26T07:39:28.286Z,29.35
2022-12-26T07:41:59.215Z,25.42
2022-12-26T07:44:28.161Z,20.58
2022-12-26T07:46:56.759Z,25.48
2022-12-26T07:49:24.795Z,17.23
2022-12-26T07:51:53.289Z,24.38
2022-12-26T07:54:22.599Z,20.45
2022-12-26T07:56:50.660Z,29.45
2022-12-26T07:59:19.167Z,20.63
2022-12-26T08:01:47.295Z,20.05
2022-12-26T08:04:15.548Z,18.88
2022-12-26T08:06:43.522Z,26.63
2022-12-26T08:09:15.905Z,18.27
2022-12-26T08:11:45.606Z,21.63
2022-12-26T08:14:16.816Z,27.65
2022-12-26T08:16:51.353Z,18.38
2022-12-26T08:19:21.267Z,21.48
2022-12-26T08:21:49.108Z,22.88
2022-12-26T08:24:16.985Z,26.85
2022-12-26T08:26:46.155Z,25.98
2022-12-26T08:29:14.087Z,23.52
2022-12-26T08:31:42.152Z,19.85
2022-12-26T08:34:10.488Z,17.65
2022-12-26T08:36:38.452Z,17.52
2022-12-26T08:39:06.637Z,16.95
2022-12-26T08:41:34.651Z,17.48
2022-12-26T08:46:52.151Z,16.13
2022-12-26T08:49:20.199Z,15.07
2022-12-26T08:51:49.540Z,15.32
2022-12-26T08:54:17.502Z,13.50
2022-12-26T08:56:45.521Z,23.88
2022-12-26T08:59:14.825Z,23.13
2022-12-26T09:01:43.094Z,16.15
2022-12-26T09:04:11.236Z,16.17
2022-12-26T09:06:40.458Z,22.10
2022-12-26T09:09:12.252Z,15.38
2022-12-26T09:11:40.963Z,14.35
2022-12-26T09:14:10.113Z,16.80
2022-12-26T09:16:49.192Z,15.70
2022-12-26T09:19:18.684Z,17.73
2022-12-26T09:21:47.431Z,14.93
2022-12-26T09:24:19.583Z,16.45
2022-12-26T09:26:47.566Z,15.00
2022-12-26T09:29:15.613Z,12.27
2022-12-26T09:31:44.966Z,15.27
2022-12-26T09:34:13.264Z,12.50
2022-12-26T09:36:41.382Z,15.65
2022-12-26T09:39:09.501Z,14.88
2022-12-26T09:41:59.875Z,10.10
2022-12-26T09:44:36.589Z,15.23
2022-12-26T09:47:17.040Z,14.43
2022-12-26T09:49:55.231Z,11.57
2022-12-26T09:52:26.001Z,17.15
2022-12-26T09:54:57.448Z,21.90
2022-12-26T09:57:35.139Z,17.23
2022-12-26T10:00:06.178Z,24.83
2022-12-26T10:02:41.862Z,17.10
2022-12-26T10:05:14.865Z,24.98
2022-12-26T10:07:48.615Z,13.93
2022-12-26T10:10:22.896Z,28.50
2022-12-26T10:12:59.408Z,17.08
2022-12-26T10:15:37.222Z,23.35
2022-12-26T10:18:19.737Z,21.05
2022-12-26T10:21:03.395Z,21.23
2022-12-26T10:23:33.715Z,18.85
2022-12-26T10:26:12.822Z,16.45
2022-12-26T10:28:46.075Z,20.08
2022-12-26T10:31:20.580Z,16.08
2022-12-26T10:33:55.415Z,14.30
2022-12-26T10:36:34.769Z,15.38
2022-12-26T10:39:05.676Z,18.92
2022-12-26T10:41:38.007Z,12.63
2022-12-26T10:44:06.688Z,22.95
2022-12-26T10:46:58.231Z,13.93
2022-12-26T10:49:28.720Z,11.52
2022-12-26T10:52:00.176Z,23.38
2022-12-26T10:54:29.478Z,18.88
2022-12-26T10:56:59.514Z,17.67
2022-12-26T10:59:38.222Z,11.23
2022-12-26T11:02:16.011Z,13.32
2022-12-26T11:05:48.423Z,14.50
2022-12-26T11:07:52.795Z,6.78
2022-12-26T11:10:23.087Z,12.93
2022-12-26T11:12:53.455Z,12.55
2022-12-26T11:15:29.097Z,12.70
2022-12-26T11:18:09.677Z,16.30
2022-12-26T11:20:39.219Z,24.30
2022-12-26T11:23:34.187Z,21.92
2022-12-26T11:26:02.886Z,12.23
2022-12-26T11:28:33.884Z,10.18
2022-12-26T11:31:05.326Z,11.80
2022-12-26T11:33:36.978Z,16.65
2022-12-26T11:36:12.820Z,13.70
2022-12-26T11:38:54.137Z,18.33
2022-12-26T11:41:39.704Z,12.48
2022-12-26T11:44:22.907Z,17.35
2022-12-26T11:46:55.309Z,10.93
2022-12-26T11:49:30.430Z,16.42
2022-12-26T11:52:01.918Z,12.18
2022-12-26T11:54:34.381Z,22.58
2022-12-26T11:57:10.398Z,19.65
2022-12-26T11:59:38.832Z,17.73
2022-12-26T12:02:19.626Z,16.08
2022-12-26T12:04:49.007Z,17.63
2022-12-26T12:07:40.890Z,11.90
2022-12-26T12:10:42.999Z,26.55
2022-12-26T12:13:22.648Z,16.42
2022-12-26T12:15:57.760Z,16.13
2022-12-26T12:18:39.287Z,18.55
2022-12-26T12:21:22.051Z,26.15
2022-12-26T12:24:11.460Z,14.75
2022-12-26T12:26:54.901Z,14.60
2022-12-26T12:29:40.304Z,21.70
2022-12-26T12:32:18.217Z,20.50
2022-12-26T12:35:13.195Z,16.77
2022-12-26T12:37:56.955Z,16.15
2022-12-26T12:43:09.812Z,25.52
2022-12-26T12:45:47.821Z,11.55
2022-12-26T12:48:27.453Z,16.90
2022-12-26T12:51:03.976Z,26.42
2022-12-26T12:53:48.719Z,27.58
2022-12-26T12:56:29.181Z,18.73
2022-12-26T12:59:07.067Z,18.60
2022-12-26T13:01:43.912Z,31.52
2022-12-26T13:04:18.176Z,20.73
2022-12-26T13:06:50.997Z,27.48
2022-12-26T13:09:23.114Z,20.67
2022-12-26T13:11:57.336Z,20.20
2022-12-26T13:14:30.036Z,14.32
2022-12-26T13:17:04.757Z,17.48
2022-12-26T13:19:42.019Z,15.15
2022-12-26T13:22:16.670Z,9.38
2022-12-26T13:24:46.531Z,18.23
2022-12-26T13:27:20.610Z,28.92
2022-12-26T13:29:50.021Z,21.05
2022-12-26T13:32:22.618Z,16.60
2022-12-26T13:34:52.745Z,20.73
2022-12-26T13:37:56.918Z,18.08
2022-12-26T13:40:28.953Z,16.67
2022-12-26T13:43:20.373Z,19.35
2022-12-26T13:45:56.890Z,20.25
2022-12-26T13:49:08.119Z,18.77
2022-12-26T13:51:53.988Z,26.42
2022-12-26T13:54:24.108Z,25.63
2022-12-26T13:57:30.321Z,17.20
2022-12-26T14:00:24.064Z,28.55
2022-12-26T14:03:36.748Z,20.83
2022-12-26T14:06:28.640Z,22.15
2022-12-26T14:09:12.480Z,24.08
2022-12-26T14:14:26.240Z,19.23
2022-12-26T14:17:04.181Z,21.33
2022-12-26T14:19:44.600Z,13.05
2022-12-26T14:22:19.724Z,25.40
2022-12-26T14:25:01.584Z,22.27
2022-12-26T14:27:38.863Z,16.13
2022-12-26T14:30:20.798Z,19.92
2022-12-26T14:33:25.809Z,14.07
2022-12-26T14:36:09.042Z,26.33
2022-12-26T14:38:46.911Z,18.05
2022-12-26T14:41:30.868Z,17.33
2022-12-26T14:44:10.061Z,29.98
2022-12-26T14:47:02.871Z,28.00
2022-12-26T14:49:43.465Z,22.38
2022-12-26T14:52:41.300Z,27.95
2022-12-26T14:55:43.154Z,19.35
2022-12-26T14:58:27.864Z,20.58
2022-12-26T15:00:57.362Z,18.55
2022-12-26T15:03:52.923Z,18.15
2022-12-26T15:06:59.326Z,13.90
2022-12-26T15:10:03.552Z,16.25
2022-12-26T15:13:19.802Z,17.85
2022-12-26T15:16:03.294Z,28.10
2022-12-26T15:19:07.475Z,19.10
2022-12-26T15:22:04.873Z,17.92
2022-12-26T15:25:20.276Z,15.77
2022-12-26T15:28:20.271Z,22.17
2022-12-26T15:31:08.638Z,26.88
2022-12-26T15:33:40.498Z,16.48
2022-12-26T15:36:23.568Z,24.88
2022-12-26T15:38:59.769Z,20.58
2022-12-26T15:41:36.511Z,15.32
2022-12-26T15:44:16.121Z,30.13
2022-12-26T15:46:50.820Z,22.67
2022-12-26T15:49:36.667Z,17.75
2022-12-26T15:52:14.158Z,25.35
2022-12-26T15:55:10.748Z,19.00
2022-12-26T15:57:46.968Z,19.08
2022-12-26T16:00:22.072Z,22.70
2022-12-26T16:03:02.544Z,12.60
2022-12-26T16:05:40.698Z,19.02
2022-12-26T16:08:41.311Z,20.02
2022-12-26T16:11:23.181Z,21.85
2022-12-26T16:13:57.469Z,22.13
2022-12-26T16:16:28.237Z,20.25
2022-12-26T16:18:56.734Z,16.13
2022-12-26T16:21:45.757Z,20.58
2022-12-26T16:24:17.309Z,26.27
2022-12-26T16:26:48.246Z,18.90
2022-12-26T16:29:19.769Z,24.30
2022-12-26T16:31:48.045Z,17.45
2022-12-26T16:34:19.876Z,35.20
2022-12-26T16:36:50.286Z,20.30
2022-12-26T16:39:24.308Z,22.58
2022-12-26T16:42:03.764Z,24.83
2022-12-26T16:44:36.210Z,17.73
2022-12-26T16:47:07.754Z,12.77
2022-12-26T16:49:37.108Z,15.07
2022-12-26T16:52:07.774Z,16.00
2022-12-26T16:54:42.346Z,19.48
2022-12-26T16:57:19.048Z,20.50
2022-12-26T16:59:52.860Z,20.10
2022-12-26T17:02:25.392Z,12.30
2022-12-26T17:05:01.459Z,13.50
2022-12-26T17:07:29.997Z,16.90
2022-12-26T17:10:00.506Z,14.30
2022-12-26T17:12:33.310Z,19.65
2022-12-26T17:15:03.118Z,16.92
2022-12-26T17:17:34.998Z,16.35
2022-12-26T17:20:33.275Z,16.13
2022-12-26T17:23:01.360Z,21.65
2022-12-26T17:25:33.676Z,14.07
2022-12-26T17:28:24.994Z,21.70
2022-12-26T17:30:54.347Z,18.75
2022-12-26T17:33:24.084Z,11.35
2022-12-26T17:38:45.443Z,29.55
2022-12-26T17:41:16.937Z,14.82
2022-12-26T17:43:47.577Z,15.85
2022-12-26T17:46:18.184Z,24.95
2022-12-26T17:48:46.546Z,21.63
2022-12-26T17:51:17.748Z,20.83
2022-12-26T17:53:49.804Z,17.92
2022-12-26T17:56:21.499Z,18.15
2022-12-26T17:58:51.445Z,23.52
2022-12-26T18:01:21.711Z,25.83
2022-12-26T18:03:51.961Z,22.08
2022-12-26T18:06:21.761Z,16.48
2022-12-26T18:08:49.722Z,15.70
2022-12-26T18:11:17.614Z,14.27
2022-12-26T18:13:45.579Z,23.15
2022-12-26T18:16:17.691Z,23.50
2022-12-26T18:18:47.522Z,20.25
2022-12-26T18:21:16.708Z,22.75
2022-12-26T18:23:45.296Z,26.15
2022-12-26T18:26:20.034Z,16.40
2022-12-26T18:28:49.943Z,13.50
2022-12-26T18:31:19.344Z,16.88
2022-12-26T18:33:47.438Z,12.25
2022-12-26T18:36:16.613Z,22.23
2022-12-26T18:38:45.519Z,24.88
2022-12-26T18:41:16.242Z,20.08
2022-12-26T18:43:44.325Z,11.48
2022-12-26T18:46:17.088Z,17.33
2022-12-26T18:48:47.148Z,15.35
2022-12-26T18:51:15.323Z,17.00
2022-12-26T18:53:43.482Z,16.95
2022-12-26T18:56:14.599Z,13.52
2022-12-26T18:58:42.741Z,16.95
2022-12-26T19:01:13.909Z,16.45
2022-12-26T19:03:43.018Z,16.92
2022-12-26T19:06:14.461Z,18.13
2022-12-26T19:08:42.935Z,14.35
2022-12-26T19:11:13.765Z,17.65
2022-12-26T19:13:42.889Z,15.65
2022-12-26T19:16:10.895Z,19.50
2022-12-26T19:18:38.813Z,13.05
2022-12-26T19:21:11.313Z,18.83
2022-12-26T19:23:41.229Z,21.43
2022-12-26T19:26:10.683Z,16.60
2022-12-26T19:28:39.201Z,12.93
2022-12-26T19:31:08.664Z,9.13
2022-12-26T19:33:36.924Z,18.20
2022-12-26T19:36:06.483Z,13.82
2022-12-26T19:38:34.815Z,17.98
2022-12-26T19:41:06.719Z,24.48
2022-12-26T19:43:35.189Z,6.03
2022-12-26T19:46:05.253Z,18.42
2022-12-26T19:48:34.889Z,18.02
2022-12-26T19:51:03.300Z,13.27
2022-12-26T19:53:31.240Z,19.05
2022-12-26T19:55:59.925Z,20.40
2022-12-26T19:58:32.165Z,14.70
2022-12-26T20:01:06.902Z,8.90
2022-12-26T20:03:34.911Z,20.60
2022-12-26T20:06:11.623Z,28.98
2022-12-26T20:08:41.649Z,13.38
2022-12-26T20:11:13.020Z,18.75
2022-12-26T20:13:44.202Z,24.65
2022-12-26T20:16:45.955Z,14.93
2022-12-26T20:19:03.376Z,13.23
2022-12-26T20:21:31.553Z,15.23
2022-12-26T20:24:03.033Z,19.15
2022-12-26T20:26:31.343Z,18.15
2022-12-26T20:29:02.431Z,17.60
2022-12-26T20:31:32.873Z,10.82
2022-12-26T20:34:04.227Z,17.10
2022-12-26T20:36:37.848Z,16.17
2022-12-26T20:39:07.956Z,17.88
2022-12-26T20:41:36.274Z,15.05
2022-12-26T20:44:05.967Z,14.25
2022-12-26T20:46:35.374Z,18.38
2022-12-26T20:49:05.136Z,17.63
2022-12-26T20:51:37.668Z,20.70
2022-12-26T20:54:32.844Z,11.20
2022-12-26T20:57:03.019Z,15.32
2022-12-26T20:59:32.335Z,18.17
2022-12-26T21:02:00.386Z,16.33
2022-12-26T21:04:28.718Z,17.52
2022-12-26T21:06:56.691Z,21.90
2022-12-26T21:09:24.842Z,8.40
2022-12-26T21:11:52.686Z,13.27
2022-12-26T21:14:23.421Z,15.23
2022-12-26T21:16:54.455Z,18.00
2022-12-26T21:19:23.277Z,14.75
2022-12-26T21:21:56.229Z,8.57
2022-12-26T21:24:26.609Z,10.88
2022-12-26T21:26:55.458Z,10.23
2022-12-26T21:29:25.333Z,13.18
2022-12-26T21:31:55.482Z,8.20
2022-12-26T21:34:25.853Z,10.50
2022-12-26T21:37:08.058Z,10.18
2022-12-26T21:39:38.090Z,8.60
2022-12-26T21:42:07.643Z,17.85
2022-12-26T21:44:37.489Z,14.25
2022-12-26T21:47:07.966Z,15.57
2022-12-26T21:49:36.408Z,8.90
2022-12-26T21:52:05.416Z,16.52
2022-12-26T21:54:51.683Z,15.07
2022-12-26T21:57:20.449Z,16.90
2022-12-26T21:59:57.389Z,15.15
2022-12-26T22:02:46.911Z,13.55
2022-12-26T22:05:15.705Z,11.90
2022-12-26T22:07:43.779Z,8.98
2022-12-26T22:10:33.454Z,15.27
2022-12-26T22:13:01.536Z,16.90
2022-12-26T22:15:47.235Z,7.70
2022-12-26T22:18:17.278Z,9.80
2022-12-26T22:20:46.244Z,14.27
2022-12-26T22:23:14.918Z,8.30
2022-12-26T22:25:43.107Z,9.30
2022-12-26T22:28:11.333Z,8.00
2022-12-26T22:30:39.550Z,12.27
2022-12-26T22:33:07.418Z,17.10
2022-12-26T22:35:37.382Z,9.93
2022-12-26T22:38:05.408Z,15.40
2022-12-26T22:40:33.510Z,13.25
2022-12-26T22:43:01.595Z,12.20
2022-12-26T22:45:30.021Z,12.20
2022-12-26T22:47:57.949Z,13.05
2022-12-26T22:50:25.924Z,11.50
2022-12-26T22:52:55.354Z,21.30
2022-12-26T22:55:23.545Z,29.23
2022-12-26T22:57:52.889Z,17.85
2022-12-26T23:00:21.634Z,11.23
2022-12-26T23:02:50.017Z,17.45
2022-12-26T23:05:19.227Z,6.90
2022-12-26T23:07:47.691Z,13.15
2022-12-26T23:10:24.103Z,11.32
2022-12-26T23:12:52.938Z,10.70
2022-12-26T23:15:23.243Z,10.65
2022-12-26T23:18:15.968Z,16.23
2022-12-26T23:21:01.828Z,10.65
2022-12-26T23:23:30.539Z,8.82
2022-12-26T23:26:02.099Z,14.60
2022-12-26T23:28:48.112Z,16.85
2022-12-26T23:31:16.555Z,9.48
2022-12-26T23:33:44.670Z,14.95
2022-12-26T23:36:12.583Z,16.80
2022-12-26T23:38:40.568Z,16.13
2022-12-26T23:41:09.723Z,7.18
2022-12-26T23:43:37.698Z,7.70
2022-12-26T23:46:09.831Z,21.55
2022-12-26T23:48:38.136Z,6.90
2022-12-26T23:51:08.607Z,9.57
2022-12-26T23:53:36.978Z,15.13
2022-12-26T23:56:09.918Z,8.35
2022-12-26T23:58:39.846Z,11.57
